sensor_id;sensor_type;location;lat;lon;timestamp;P1;durP1;ratioP1;P2;durP2;ratioP2
50126;SDS011;36024;47.974;16.398;2023-04-20T00:01:12;6.13;;;5.60;;
50126;SDS011;36024;47.974;16.398;2023-04-20T00:03:41;6.33;;;5.50;;
50126;SDS011;36024;47.974;16.398;2023-04-20T00:06:12;6.37;;;5.77;;
50126;SDS011;36024;47.974;16.398;2023-04-20T00:08:39;6.43;;;5.83;;
50126;SDS011;36024;47.974;16.398;2023-04-20T00:11:09;7.23;;;5.70;;
50126;SDS011;36024;47.974;16.398;2023-04-20T00:13:36;5.87;;;5.27;;
50126;SDS011;36024;47.974;16.398;2023-04-20T00:16:04;6.33;;;5.73;;
50126;SDS011;36024;47.974;16.398;2023-04-20T00:18:32;6.20;;;5.60;;
50126;SDS011;36024;47.974;16.398;2023-04-20T00:20:59;6.70;;;5.70;;
50126;SDS011;36024;47.974;16.398;2023-04-20T00:23:26;6.00;;;5.40;;
50126;SDS011;36024;47.974;16.398;2023-04-20T00:25:52;6.50;;;5.90;;
50126;SDS011;36024;47.974;16.398;2023-04-20T00:28:19;7.27;;;6.57;;
50126;SDS011;36024;47.974;16.398;2023-04-20T00:30:46;6.97;;;6.33;;
50126;SDS011;36024;47.974;16.398;2023-04-20T00:33:13;7.17;;;6.03;;
50126;SDS011;36024;47.974;16.398;2023-04-20T00:35:41;6.23;;;5.63;;
50126;SDS011;36024;47.974;16.398;2023-04-20T00:38:10;6.40;;;5.80;;
50126;SDS011;36024;47.974;16.398;2023-04-20T00:40:43;7.17;;;6.47;;
50126;SDS011;36024;47.974;16.398;2023-04-20T00:43:13;6.90;;;6.20;;
50126;SDS011;36024;47.974;16.398;2023-04-20T00:45:46;6.63;;;6.00;;
50126;SDS011;36024;47.974;16.398;2023-04-20T00:48:17;8.03;;;6.30;;
50126;SDS011;36024;47.974;16.398;2023-04-20T00:50:44;6.50;;;5.70;;
50126;SDS011;36024;47.974;16.398;2023-04-20T00:53:12;6.60;;;6.00;;
50126;SDS011;36024;47.974;16.398;2023-04-20T00:55:39;6.90;;;6.23;;
50126;SDS011;36024;47.974;16.398;2023-04-20T00:58:10;6.93;;;6.23;;
50126;SDS011;36024;47.974;16.398;2023-04-20T01:00:38;6.67;;;6.07;;
50126;SDS011;36024;47.974;16.398;2023-04-20T01:03:06;6.73;;;5.90;;
50126;SDS011;36024;47.974;16.398;2023-04-20T01:05:33;7.03;;;6.37;;
50126;SDS011;36024;47.974;16.398;2023-04-20T01:08:04;9.00;;;7.67;;
50126;SDS011;36024;47.974;16.398;2023-04-20T01:10:34;7.83;;;7.03;;
50126;SDS011;36024;47.974;16.398;2023-04-20T01:13:05;8.87;;;7.97;;
50126;SDS011;36024;47.974;16.398;2023-04-20T01:15:32;8.63;;;7.67;;
50126;SDS011;36024;47.974;16.398;2023-04-20T01:18:00;8.83;;;7.93;;
50126;SDS011;36024;47.974;16.398;2023-04-20T01:20:29;9.27;;;8.27;;
50126;SDS011;36024;47.974;16.398;2023-04-20T01:22:56;8.67;;;7.77;;
50126;SDS011;36024;47.974;16.398;2023-04-20T01:25:23;8.67;;;7.77;;
50126;SDS011;36024;47.974;16.398;2023-04-20T01:27:55;8.37;;;7.57;;
50126;SDS011;36024;47.974;16.398;2023-04-20T01:30:22;9.40;;;7.87;;
50126;SDS011;36024;47.974;16.398;2023-04-20T01:32:57;9.03;;;8.17;;
50126;SDS011;36024;47.974;16.398;2023-04-20T01:35:24;8.90;;;8.00;;
50126;SDS011;36024;47.974;16.398;2023-04-20T01:37:51;8.63;;;7.73;;
50126;SDS011;36024;47.974;16.398;2023-04-20T01:40:19;8.73;;;7.93;;
50126;SDS011;36024;47.974;16.398;2023-04-20T01:42:51;9.30;;;7.97;;
50126;SDS011;36024;47.974;16.398;2023-04-20T01:45:21;8.53;;;7.70;;
50126;SDS011;36024;47.974;16.398;2023-04-20T01:47:49;9.50;;;8.60;;
50126;SDS011;36024;47.974;16.398;2023-04-20T01:50:16;8.40;;;7.60;;
50126;SDS011;36024;47.974;16.398;2023-04-20T01:52:43;9.00;;;8.13;;
50126;SDS011;36024;47.974;16.398;2023-04-20T01:55:11;9.33;;;8.43;;
50126;SDS011;36024;47.974;16.398;2023-04-20T01:57:38;9.17;;;8.27;;
50126;SDS011;36024;47.974;16.398;2023-04-20T02:00:06;10.40;;;9.30;;
50126;SDS011;36024;47.974;16.398;2023-04-20T02:02:39;10.40;;;9.40;;
50126;SDS011;36024;47.974;16.398;2023-04-20T02:05:06;10.33;;;9.33;;
50126;SDS011;36024;47.974;16.398;2023-04-20T02:07:33;10.87;;;9.77;;
50126;SDS011;36024;47.974;16.398;2023-04-20T02:10:01;11.93;;;10.60;;
50126;SDS011;36024;47.974;16.398;2023-04-20T02:12:30;11.37;;;10.27;;
50126;SDS011;36024;47.974;16.398;2023-04-20T02:14:57;12.07;;;10.87;;
50126;SDS011;36024;47.974;16.398;2023-04-20T02:17:24;11.57;;;10.40;;
50126;SDS011;36024;47.974;16.398;2023-04-20T02:19:55;11.80;;;10.60;;
50126;SDS011;36024;47.974;16.398;2023-04-20T02:22:23;12.03;;;10.80;;
50126;SDS011;36024;47.974;16.398;2023-04-20T02:24:51;11.60;;;10.40;;
50126;SDS011;36024;47.974;16.398;2023-04-20T02:27:19;12.37;;;10.13;;
50126;SDS011;36024;47.974;16.398;2023-04-20T02:29:46;10.87;;;9.73;;
50126;SDS011;36024;47.974;16.398;2023-04-20T02:32:13;11.37;;;10.13;;
50126;SDS011;36024;47.974;16.398;2023-04-20T02:34:40;11.43;;;10.20;;
50126;SDS011;36024;47.974;16.398;2023-04-20T02:37:06;12.07;;;10.03;;
50126;SDS011;36024;47.974;16.398;2023-04-20T02:39:40;10.97;;;9.87;;
50126;SDS011;36024;47.974;16.398;2023-04-20T02:42:33;11.40;;;10.20;;
50126;SDS011;36024;47.974;16.398;2023-04-20T02:45:04;11.80;;;10.07;;
50126;SDS011;36024;47.974;16.398;2023-04-20T02:47:39;11.17;;;9.97;;
50126;SDS011;36024;47.974;16.398;2023-04-20T02:50:13;12.13;;;10.80;;
50126;SDS011;36024;47.974;16.398;2023-04-20T02:53:06;11.40;;;10.20;;
50126;SDS011;36024;47.974;16.398;2023-04-20T02:56:01;12.50;;;11.20;;
50126;SDS011;36024;47.974;16.398;2023-04-20T02:58:55;11.70;;;10.47;;
50126;SDS011;36024;47.974;16.398;2023-04-20T03:01:45;11.73;;;10.53;;
50126;SDS011;36024;47.974;16.398;2023-04-20T03:04:15;12.17;;;10.97;;
50126;SDS011;36024;47.974;16.398;2023-04-20T03:06:52;13.30;;;10.70;;
50126;SDS011;36024;47.974;16.398;2023-04-20T03:09:24;12.50;;;11.20;;
50126;SDS011;36024;47.974;16.398;2023-04-20T03:11:56;12.27;;;11.07;;
50126;SDS011;36024;47.974;16.398;2023-04-20T03:14:58;12.23;;;11.00;;
50126;SDS011;36024;47.974;16.398;2023-04-20T03:17:42;12.37;;;11.07;;
50126;SDS011;36024;47.974;16.398;2023-04-20T03:20:09;12.37;;;11.13;;
50126;SDS011;36024;47.974;16.398;2023-04-20T03:22:37;11.80;;;10.60;;
50126;SDS011;36024;47.974;16.398;2023-04-20T03:25:05;12.30;;;11.00;;
50126;SDS011;36024;47.974;16.398;2023-04-20T03:27:49;13.33;;;11.30;;
50126;SDS011;36024;47.974;16.398;2023-04-20T03:30:17;12.07;;;10.87;;
50126;SDS011;36024;47.974;16.398;2023-04-20T03:32:48;12.60;;;11.30;;
50126;SDS011;36024;47.974;16.398;2023-04-20T03:35:15;11.93;;;10.73;;
50126;SDS011;36024;47.974;16.398;2023-04-20T03:37:43;11.43;;;10.33;;
50126;SDS011;36024;47.974;16.398;2023-04-20T03:40:10;12.13;;;10.13;;
50126;SDS011;36024;47.974;16.398;2023-04-20T03:42:37;12.37;;;10.40;;
50126;SDS011;36024;47.974;16.398;2023-04-20T03:45:04;11.53;;;10.30;;
50126;SDS011;36024;47.974;16.398;2023-04-20T03:47:31;11.27;;;9.93;;
50126;SDS011;36024;47.974;16.398;2023-04-20T03:49:58;11.03;;;9.93;;
50126;SDS011;36024;47.974;16.398;2023-04-20T03:52:25;11.07;;;9.80;;
50126;SDS011;36024;47.974;16.398;2023-04-20T03:54:52;12.20;;;10.03;;
50126;SDS011;36024;47.974;16.398;2023-04-20T03:57:19;12.50;;;10.47;;
50126;SDS011;36024;47.974;16.398;2023-04-20T03:59:46;12.97;;;11.13;;
50126;SDS011;36024;47.974;16.398;2023-04-20T04:02:17;11.50;;;10.37;;
50126;SDS011;36024;47.974;16.398;2023-04-20T04:04:45;10.43;;;9.33;;
50126;SDS011;36024;47.974;16.398;2023-04-20T04:07:12;11.80;;;10.60;;
50126;SDS011;36024;47.974;16.398;2023-04-20T04:09:40;11.80;;;9.87;;
50126;SDS011;36024;47.974;16.398;2023-04-20T04:12:08;11.03;;;9.70;;
50126;SDS011;36024;47.974;16.398;2023-04-20T04:14:34;12.00;;;9.90;;
50126;SDS011;36024;47.974;16.398;2023-04-20T04:17:02;11.27;;;9.33;;
50126;SDS011;36024;47.974;16.398;2023-04-20T04:19:30;10.40;;;9.10;;
50126;SDS011;36024;47.974;16.398;2023-04-20T04:21:58;10.40;;;9.20;;
50126;SDS011;36024;47.974;16.398;2023-04-20T04:24:24;11.60;;;9.63;;
50126;SDS011;36024;47.974;16.398;2023-04-20T04:27:01;11.23;;;9.90;;
50126;SDS011;36024;47.974;16.398;2023-04-20T04:29:35;10.77;;;9.67;;
50126;SDS011;36024;47.974;16.398;2023-04-20T04:32:06;10.50;;;9.30;;
50126;SDS011;36024;47.974;16.398;2023-04-20T04:34:35;10.47;;;9.13;;
50126;SDS011;36024;47.974;16.398;2023-04-20T04:37:03;10.87;;;9.57;;
50126;SDS011;36024;47.974;16.398;2023-04-20T04:39:44;10.80;;;9.70;;
50126;SDS011;36024;47.974;16.398;2023-04-20T04:42:17;10.90;;;9.70;;
50126;SDS011;36024;47.974;16.398;2023-04-20T04:44:45;11.13;;;10.03;;
50126;SDS011;36024;47.974;16.398;2023-04-20T04:47:18;10.93;;;9.60;;
50126;SDS011;36024;47.974;16.398;2023-04-20T04:49:48;11.50;;;9.60;;
50126;SDS011;36024;47.974;16.398;2023-04-20T04:52:14;10.93;;;9.83;;
50126;SDS011;36024;47.974;16.398;2023-04-20T04:54:41;11.03;;;9.93;;
50126;SDS011;36024;47.974;16.398;2023-04-20T04:57:08;11.53;;;10.20;;
50126;SDS011;36024;47.974;16.398;2023-04-20T04:59:34;12.10;;;10.90;;
50126;SDS011;36024;47.974;16.398;2023-04-20T05:02:01;12.40;;;10.53;;
50126;SDS011;36024;47.974;16.398;2023-04-20T05:04:28;12.27;;;10.97;;
50126;SDS011;36024;47.974;16.398;2023-04-20T05:06:55;11.57;;;10.30;;
50126;SDS011;36024;47.974;16.398;2023-04-20T05:09:22;12.13;;;10.83;;
50126;SDS011;36024;47.974;16.398;2023-04-20T05:11:48;13.37;;;11.47;;
50126;SDS011;36024;47.974;16.398;2023-04-20T05:14:15;12.03;;;10.83;;
50126;SDS011;36024;47.974;16.398;2023-04-20T05:16:42;12.70;;;11.40;;
50126;SDS011;36024;47.974;16.398;2023-04-20T05:19:09;12.50;;;11.20;;
50126;SDS011;36024;47.974;16.398;2023-04-20T05:21:36;13.00;;;11.70;;
50126;SDS011;36024;47.974;16.398;2023-04-20T05:24:04;14.03;;;12.60;;
50126;SDS011;36024;47.974;16.398;2023-04-20T05:26:31;13.03;;;11.73;;
50126;SDS011;36024;47.974;16.398;2023-04-20T05:28:58;13.37;;;12.00;;
50126;SDS011;36024;47.974;16.398;2023-04-20T05:31:25;14.80;;;13.30;;
50126;SDS011;36024;47.974;16.398;2023-04-20T05:33:52;14.83;;;13.23;;
50126;SDS011;36024;47.974;16.398;2023-04-20T05:36:19;15.37;;;13.77;;
50126;SDS011;36024;47.974;16.398;2023-04-20T05:38:46;15.93;;;14.33;;
50126;SDS011;36024;47.974;16.398;2023-04-20T05:41:12;16.50;;;14.77;;
50126;SDS011;36024;47.974;16.398;2023-04-20T05:43:39;16.87;;;15.03;;
50126;SDS011;36024;47.974;16.398;2023-04-20T05:46:06;17.43;;;14.93;;
50126;SDS011;36024;47.974;16.398;2023-04-20T05:48:32;17.87;;;14.97;;
50126;SDS011;36024;47.974;16.398;2023-04-20T05:50:59;17.27;;;15.47;;
50126;SDS011;36024;47.974;16.398;2023-04-20T05:53:26;16.53;;;14.83;;
50126;SDS011;36024;47.974;16.398;2023-04-20T05:55:53;17.43;;;15.60;;
50126;SDS011;36024;47.974;16.398;2023-04-20T05:58:19;17.30;;;14.87;;
50126;SDS011;36024;47.974;16.398;2023-04-20T06:00:46;17.03;;;15.23;;
50126;SDS011;36024;47.974;16.398;2023-04-20T06:03:13;17.70;;;15.80;;
50126;SDS011;36024;47.974;16.398;2023-04-20T06:05:40;18.33;;;16.13;;
50126;SDS011;36024;47.974;16.398;2023-04-20T06:08:07;17.20;;;15.50;;
50126;SDS011;36024;47.974;16.398;2023-04-20T06:10:33;17.40;;;15.60;;
50126;SDS011;36024;47.974;16.398;2023-04-20T06:13:00;17.03;;;15.20;;
50126;SDS011;36024;47.974;16.398;2023-04-20T06:15:27;18.20;;;16.30;;
50126;SDS011;36024;47.974;16.398;2023-04-20T06:17:53;18.30;;;16.47;;
50126;SDS011;36024;47.974;16.398;2023-04-20T06:20:20;16.70;;;14.90;;
50126;SDS011;36024;47.974;16.398;2023-04-20T06:22:47;16.83;;;15.03;;
50126;SDS011;36024;47.974;16.398;2023-04-20T06:25:14;17.23;;;15.43;;
50126;SDS011;36024;47.974;16.398;2023-04-20T06:27:41;16.87;;;15.07;;
50126;SDS011;36024;47.974;16.398;2023-04-20T06:30:08;17.20;;;15.43;;
50126;SDS011;36024;47.974;16.398;2023-04-20T06:32:35;17.20;;;15.40;;
50126;SDS011;36024;47.974;16.398;2023-04-20T06:35:03;17.90;;;16.10;;
50126;SDS011;36024;47.974;16.398;2023-04-20T06:37:36;17.77;;;15.97;;
50126;SDS011;36024;47.974;16.398;2023-04-20T06:40:03;17.60;;;15.77;;
50126;SDS011;36024;47.974;16.398;2023-04-20T06:42:34;18.03;;;16.23;;
50126;SDS011;36024;47.974;16.398;2023-04-20T06:45:04;17.80;;;15.67;;
50126;SDS011;36024;47.974;16.398;2023-04-20T06:47:32;17.10;;;15.30;;
50126;SDS011;36024;47.974;16.398;2023-04-20T06:50:00;18.07;;;16.17;;
50126;SDS011;36024;47.974;16.398;2023-04-20T06:52:27;16.80;;;15.10;;
50126;SDS011;36024;47.974;16.398;2023-04-20T06:54:56;17.90;;;15.97;;
50126;SDS011;36024;47.974;16.398;2023-04-20T06:57:27;17.87;;;16.07;;
50126;SDS011;36024;47.974;16.398;2023-04-20T06:59:53;17.33;;;15.63;;
50126;SDS011;36024;47.974;16.398;2023-04-20T07:02:20;18.07;;;16.27;;
50126;SDS011;36024;47.974;16.398;2023-04-20T07:04:47;18.03;;;16.23;;
50126;SDS011;36024;47.974;16.398;2023-04-20T07:07:14;18.00;;;16.20;;
50126;SDS011;36024;47.974;16.398;2023-04-20T07:09:40;18.53;;;16.57;;
50126;SDS011;36024;47.974;16.398;2023-04-20T07:12:07;19.47;;;16.47;;
50126;SDS011;36024;47.974;16.398;2023-04-20T07:14:34;18.00;;;15.47;;
50126;SDS011;36024;47.974;16.398;2023-04-20T07:17:01;17.37;;;15.67;;
50126;SDS011;36024;47.974;16.398;2023-04-20T07:19:28;17.10;;;15.37;;
50126;SDS011;36024;47.974;16.398;2023-04-20T07:21:54;18.23;;;16.37;;
50126;SDS011;36024;47.974;16.398;2023-04-20T07:24:21;17.63;;;15.93;;
50126;SDS011;36024;47.974;16.398;2023-04-20T07:26:48;17.67;;;15.87;;
50126;SDS011;36024;47.974;16.398;2023-04-20T07:29:15;18.37;;;16.47;;
50126;SDS011;36024;47.974;16.398;2023-04-20T07:31:44;18.87;;;16.93;;
50126;SDS011;36024;47.974;16.398;2023-04-20T07:34:11;17.80;;;16.00;;
50126;SDS011;36024;47.974;16.398;2023-04-20T07:36:38;17.80;;;16.00;;
50126;SDS011;36024;47.974;16.398;2023-04-20T07:39:04;19.10;;;17.03;;
50126;SDS011;36024;47.974;16.398;2023-04-20T07:41:31;18.57;;;16.50;;
50126;SDS011;36024;47.974;16.398;2023-04-20T07:43:58;18.23;;;16.20;;
50126;SDS011;36024;47.974;16.398;2023-04-20T07:46:25;19.67;;;17.67;;
50126;SDS011;36024;47.974;16.398;2023-04-20T07:48:53;19.53;;;17.47;;
50126;SDS011;36024;47.974;16.398;2023-04-20T07:51:20;18.00;;;16.23;;
50126;SDS011;36024;47.974;16.398;2023-04-20T07:53:46;19.37;;;17.40;;
50126;SDS011;36024;47.974;16.398;2023-04-20T07:56:13;19.07;;;17.07;;
50126;SDS011;36024;47.974;16.398;2023-04-20T07:58:40;18.83;;;16.93;;
50126;SDS011;36024;47.974;16.398;2023-04-20T08:01:07;19.63;;;17.53;;
50126;SDS011;36024;47.974;16.398;2023-04-20T08:03:34;18.93;;;16.97;;
50126;SDS011;36024;47.974;16.398;2023-04-20T08:06:01;18.27;;;16.37;;
50126;SDS011;36024;47.974;16.398;2023-04-20T08:08:28;18.23;;;16.40;;
50126;SDS011;36024;47.974;16.398;2023-04-20T08:10:56;18.13;;;16.17;;
50126;SDS011;36024;47.974;16.398;2023-04-20T08:13:24;17.90;;;16.10;;
50126;SDS011;36024;47.974;16.398;2023-04-20T08:15:51;18.57;;;16.67;;
50126;SDS011;36024;47.974;16.398;2023-04-20T08:18:18;18.13;;;16.27;;
50126;SDS011;36024;47.974;16.398;2023-04-20T08:20:46;17.77;;;15.97;;
50126;SDS011;36024;47.974;16.398;2023-04-20T08:23:13;17.87;;;16.07;;
50126;SDS011;36024;47.974;16.398;2023-04-20T08:25:40;17.80;;;15.90;;
50126;SDS011;36024;47.974;16.398;2023-04-20T08:28:06;17.70;;;16.00;;
50126;SDS011;36024;47.974;16.398;2023-04-20T08:30:40;18.23;;;16.40;;
50126;SDS011;36024;47.974;16.398;2023-04-20T08:33:07;18.40;;;16.50;;
50126;SDS011;36024;47.974;16.398;2023-04-20T08:35:34;18.23;;;16.53;;
50126;SDS011;36024;47.974;16.398;2023-04-20T08:38:03;18.17;;;16.47;;
50126;SDS011;36024;47.974;16.398;2023-04-20T08:40:30;16.87;;;15.17;;
50126;SDS011;36024;47.974;16.398;2023-04-20T08:42:57;17.73;;;15.93;;
50126;SDS011;36024;47.974;16.398;2023-04-20T08:45:27;15.90;;;14.40;;
50126;SDS011;36024;47.974;16.398;2023-04-20T08:47:54;18.30;;;16.40;;
50126;SDS011;36024;47.974;16.398;2023-04-20T08:50:25;18.60;;;16.70;;
50126;SDS011;36024;47.974;16.398;2023-04-20T08:52:51;17.60;;;15.80;;
50126;SDS011;36024;47.974;16.398;2023-04-20T08:55:18;17.47;;;15.73;;
50126;SDS011;36024;47.974;16.398;2023-04-20T08:57:46;16.90;;;15.30;;
50126;SDS011;36024;47.974;16.398;2023-04-20T09:00:14;16.97;;;15.27;;
50126;SDS011;36024;47.974;16.398;2023-04-20T09:02:51;17.83;;;16.13;;
50126;SDS011;36024;47.974;16.398;2023-04-20T09:05:23;18.87;;;16.90;;
50126;SDS011;36024;47.974;16.398;2023-04-20T09:07:56;18.67;;;16.77;;
50126;SDS011;36024;47.974;16.398;2023-04-20T09:10:24;18.67;;;16.83;;
50126;SDS011;36024;47.974;16.398;2023-04-20T09:12:52;18.70;;;16.80;;
50126;SDS011;36024;47.974;16.398;2023-04-20T09:15:23;19.37;;;17.40;;
50126;SDS011;36024;47.974;16.398;2023-04-20T09:17:53;19.93;;;18.03;;
50126;SDS011;36024;47.974;16.398;2023-04-20T09:20:31;19.50;;;17.53;;
50126;SDS011;36024;47.974;16.398;2023-04-20T09:25:38;19.67;;;17.70;;
50126;SDS011;36024;47.974;16.398;2023-04-20T09:28:08;18.93;;;17.13;;
50126;SDS011;36024;47.974;16.398;2023-04-20T09:30:35;19.30;;;17.30;;
50126;SDS011;36024;47.974;16.398;2023-04-20T09:33:05;18.33;;;16.53;;
50126;SDS011;36024;47.974;16.398;2023-04-20T09:35:33;18.07;;;16.27;;
50126;SDS011;36024;47.974;16.398;2023-04-20T09:38:01;19.07;;;17.13;;
50126;SDS011;36024;47.974;16.398;2023-04-20T09:40:28;18.77;;;16.80;;
50126;SDS011;36024;47.974;16.398;2023-04-20T09:42:56;18.10;;;16.30;;
50126;SDS011;36024;47.974;16.398;2023-04-20T09:45:24;19.27;;;17.47;;
50126;SDS011;36024;47.974;16.398;2023-04-20T09:47:51;19.53;;;17.53;;
50126;SDS011;36024;47.974;16.398;2023-04-20T09:50:18;19.63;;;17.77;;
50126;SDS011;36024;47.974;16.398;2023-04-20T09:52:57;19.37;;;17.50;;
50126;SDS011;36024;47.974;16.398;2023-04-20T09:55:25;18.97;;;17.07;;
50126;SDS011;36024;47.974;16.398;2023-04-20T09:57:52;19.13;;;17.30;;
50126;SDS011;36024;47.974;16.398;2023-04-20T10:00:19;21.13;;;19.00;;
50126;SDS011;36024;47.974;16.398;2023-04-20T10:02:46;19.27;;;17.43;;
50126;SDS011;36024;47.974;16.398;2023-04-20T10:05:13;19.83;;;17.83;;
50126;SDS011;36024;47.974;16.398;2023-04-20T10:07:42;20.77;;;18.57;;
50126;SDS011;36024;47.974;16.398;2023-04-20T10:10:13;20.70;;;18.60;;
50126;SDS011;36024;47.974;16.398;2023-04-20T10:12:48;20.40;;;18.37;;
50126;SDS011;36024;47.974;16.398;2023-04-20T10:15:15;20.87;;;18.87;;
50126;SDS011;36024;47.974;16.398;2023-04-20T10:17:42;19.00;;;17.03;;
50126;SDS011;36024;47.974;16.398;2023-04-20T10:20:19;18.70;;;16.90;;
50126;SDS011;36024;47.974;16.398;2023-04-20T10:22:51;19.03;;;17.13;;
50126;SDS011;36024;47.974;16.398;2023-04-20T10:25:21;20.50;;;18.60;;
50126;SDS011;36024;47.974;16.398;2023-04-20T10:30:21;19.07;;;17.17;;
50126;SDS011;36024;47.974;16.398;2023-04-20T10:32:48;18.97;;;17.17;;
50126;SDS011;36024;47.974;16.398;2023-04-20T10:35:16;19.07;;;17.20;;
50126;SDS011;36024;47.974;16.398;2023-04-20T10:37:46;19.73;;;17.80;;
50126;SDS011;36024;47.974;16.398;2023-04-20T10:40:14;19.50;;;17.50;;
50126;SDS011;36024;47.974;16.398;2023-04-20T10:42:42;18.87;;;16.97;;
50126;SDS011;36024;47.974;16.398;2023-04-20T10:45:10;17.10;;;15.50;;
50126;SDS011;36024;47.974;16.398;2023-04-20T10:47:37;17.77;;;16.17;;
50126;SDS011;36024;47.974;16.398;2023-04-20T10:50:09;18.73;;;16.93;;
50126;SDS011;36024;47.974;16.398;2023-04-20T10:52:38;18.00;;;16.20;;
50126;SDS011;36024;47.974;16.398;2023-04-20T10:55:16;17.90;;;16.20;;
50126;SDS011;36024;47.974;16.398;2023-04-20T10:57:47;15.43;;;14.03;;
50126;SDS011;36024;47.974;16.398;2023-04-20T11:00:19;14.70;;;13.40;;
50126;SDS011;36024;47.974;16.398;2023-04-20T11:02:51;16.53;;;15.03;;
50126;SDS011;36024;47.974;16.398;2023-04-20T11:05:21;20.07;;;18.27;;
50126;SDS011;36024;47.974;16.398;2023-04-20T11:07:58;19.23;;;17.47;;
50126;SDS011;36024;47.974;16.398;2023-04-20T11:10:36;17.03;;;15.43;;
50126;SDS011;36024;47.974;16.398;2023-04-20T11:13:23;18.07;;;16.47;;
50126;SDS011;36024;47.974;16.398;2023-04-20T11:15:51;18.20;;;16.50;;
50126;SDS011;36024;47.974;16.398;2023-04-20T11:18:18;18.33;;;16.53;;
50126;SDS011;36024;47.974;16.398;2023-04-20T11:23:18;18.17;;;16.37;;
50126;SDS011;36024;47.974;16.398;2023-04-20T11:25:55;15.67;;;14.27;;
50126;SDS011;36024;47.974;16.398;2023-04-20T11:28:22;13.57;;;12.27;;
50126;SDS011;36024;47.974;16.398;2023-04-20T11:30:51;13.13;;;11.87;;
50126;SDS011;36024;47.974;16.398;2023-04-20T11:33:27;13.93;;;12.63;;
50126;SDS011;36024;47.974;16.398;2023-04-20T11:35:58;15.50;;;14.00;;
50126;SDS011;36024;47.974;16.398;2023-04-20T11:38:26;16.40;;;14.80;;
50126;SDS011;36024;47.974;16.398;2023-04-20T11:40:53;15.53;;;14.03;;
50126;SDS011;36024;47.974;16.398;2023-04-20T11:43:21;14.73;;;13.33;;
50126;SDS011;36024;47.974;16.398;2023-04-20T11:45:48;15.67;;;14.27;;
50126;SDS011;36024;47.974;16.398;2023-04-20T11:48:14;15.40;;;13.90;;
50126;SDS011;36024;47.974;16.398;2023-04-20T11:50:41;15.70;;;14.30;;
50126;SDS011;36024;47.974;16.398;2023-04-20T11:53:08;15.97;;;14.37;;
50126;SDS011;36024;47.974;16.398;2023-04-20T11:55:39;15.97;;;14.53;;
50126;SDS011;36024;47.974;16.398;2023-04-20T11:58:07;14.07;;;12.77;;
50126;SDS011;36024;47.974;16.398;2023-04-20T12:00:34;14.00;;;12.80;;
50126;SDS011;36024;47.974;16.398;2023-04-20T12:03:00;14.60;;;13.30;;
50126;SDS011;36024;47.974;16.398;2023-04-20T12:05:27;14.37;;;13.00;;
50126;SDS011;36024;47.974;16.398;2023-04-20T12:07:55;14.80;;;13.40;;
50126;SDS011;36024;47.974;16.398;2023-04-20T12:10:22;15.57;;;14.00;;
50126;SDS011;36024;47.974;16.398;2023-04-20T12:12:48;14.03;;;12.83;;
50126;SDS011;36024;47.974;16.398;2023-04-20T12:15:15;14.27;;;13.07;;
50126;SDS011;36024;47.974;16.398;2023-04-20T12:17:42;14.70;;;13.40;;
50126;SDS011;36024;47.974;16.398;2023-04-20T12:20:09;12.87;;;11.60;;
50126;SDS011;36024;47.974;16.398;2023-04-20T12:22:37;14.43;;;13.00;;
50126;SDS011;36024;47.974;16.398;2023-04-20T12:25:04;13.83;;;12.53;;
50126;SDS011;36024;47.974;16.398;2023-04-20T12:27:32;13.30;;;12.10;;
50126;SDS011;36024;47.974;16.398;2023-04-20T12:29:58;12.67;;;11.47;;
50126;SDS011;36024;47.974;16.398;2023-04-20T12:32:25;12.17;;;11.07;;
50126;SDS011;36024;47.974;16.398;2023-04-20T12:34:52;12.80;;;11.63;;
50126;SDS011;36024;47.974;16.398;2023-04-20T12:37:19;11.17;;;10.17;;
50126;SDS011;36024;47.974;16.398;2023-04-20T12:39:46;13.33;;;11.93;;
50126;SDS011;36024;47.974;16.398;2023-04-20T12:42:12;13.10;;;11.90;;
50126;SDS011;36024;47.974;16.398;2023-04-20T12:44:39;12.40;;;11.20;;
50126;SDS011;36024;47.974;16.398;2023-04-20T12:47:06;12.57;;;11.47;;
50126;SDS011;36024;47.974;16.398;2023-04-20T12:49:37;13.73;;;12.50;;
50126;SDS011;36024;47.974;16.398;2023-04-20T12:52:04;13.50;;;12.27;;
50126;SDS011;36024;47.974;16.398;2023-04-20T12:54:33;12.13;;;11.03;;
50126;SDS011;36024;47.974;16.398;2023-04-20T12:57:00;12.07;;;10.97;;
50126;SDS011;36024;47.974;16.398;2023-04-20T12:59:27;13.50;;;12.20;;
50126;SDS011;36024;47.974;16.398;2023-04-20T13:01:54;12.97;;;11.83;;
50126;SDS011;36024;47.974;16.398;2023-04-20T13:04:21;12.60;;;11.43;;
50126;SDS011;36024;47.974;16.398;2023-04-20T13:06:49;14.60;;;13.17;;
50126;SDS011;36024;47.974;16.398;2023-04-20T13:09:15;14.13;;;12.73;;
50126;SDS011;36024;47.974;16.398;2023-04-20T13:11:42;13.43;;;12.13;;
50126;SDS011;36024;47.974;16.398;2023-04-20T13:14:09;11.70;;;10.60;;
50126;SDS011;36024;47.974;16.398;2023-04-20T13:16:35;9.63;;;8.57;;
50126;SDS011;36024;47.974;16.398;2023-04-20T13:19:02;9.53;;;8.63;;
50126;SDS011;36024;47.974;16.398;2023-04-20T13:21:29;9.83;;;8.87;;
50126;SDS011;36024;47.974;16.398;2023-04-20T13:23:56;11.03;;;10.03;;
50126;SDS011;36024;47.974;16.398;2023-04-20T13:26:23;8.30;;;7.57;;
50126;SDS011;36024;47.974;16.398;2023-04-20T13:28:49;8.87;;;8.07;;
50126;SDS011;36024;47.974;16.398;2023-04-20T13:31:16;9.67;;;8.87;;
50126;SDS011;36024;47.974;16.398;2023-04-20T13:33:43;9.50;;;8.60;;
50126;SDS011;36024;47.974;16.398;2023-04-20T13:36:09;10.00;;;9.00;;
50126;SDS011;36024;47.974;16.398;2023-04-20T13:38:36;9.03;;;8.27;;
50126;SDS011;36024;47.974;16.398;2023-04-20T13:41:03;10.87;;;9.87;;
50126;SDS011;36024;47.974;16.398;2023-04-20T13:43:30;10.50;;;9.53;;
50126;SDS011;36024;47.974;16.398;2023-04-20T13:45:56;9.10;;;8.30;;
50126;SDS011;36024;47.974;16.398;2023-04-20T13:48:23;11.10;;;10.00;;
50126;SDS011;36024;47.974;16.398;2023-04-20T13:50:53;12.57;;;11.37;;
50126;SDS011;36024;47.974;16.398;2023-04-20T13:53:19;12.60;;;11.50;;
50126;SDS011;36024;47.974;16.398;2023-04-20T13:55:47;10.57;;;9.33;;
50126;SDS011;36024;47.974;16.398;2023-04-20T13:58:13;9.90;;;9.10;;
50126;SDS011;36024;47.974;16.398;2023-04-20T14:00:40;9.80;;;9.00;;
50126;SDS011;36024;47.974;16.398;2023-04-20T14:03:10;10.43;;;9.53;;
50126;SDS011;36024;47.974;16.398;2023-04-20T14:05:37;10.27;;;9.33;;
50126;SDS011;36024;47.974;16.398;2023-04-20T14:08:04;9.40;;;8.60;;
50126;SDS011;36024;47.974;16.398;2023-04-20T14:10:32;8.90;;;8.10;;
50126;SDS011;36024;47.974;16.398;2023-04-20T14:12:59;8.03;;;7.33;;
50126;SDS011;36024;47.974;16.398;2023-04-20T14:15:26;6.40;;;5.80;;
50126;SDS011;36024;47.974;16.398;2023-04-20T14:17:53;5.40;;;5.00;;
50126;SDS011;36024;47.974;16.398;2023-04-20T14:20:20;5.37;;;4.90;;
50126;SDS011;36024;47.974;16.398;2023-04-20T14:22:47;5.23;;;4.73;;
50126;SDS011;36024;47.974;16.398;2023-04-20T14:25:13;4.87;;;4.43;;
50126;SDS011;36024;47.974;16.398;2023-04-20T14:27:40;6.27;;;5.67;;
50126;SDS011;36024;47.974;16.398;2023-04-20T14:30:07;5.87;;;5.43;;
50126;SDS011;36024;47.974;16.398;2023-04-20T14:32:34;5.90;;;5.40;;